Latest Coastal Weather Observations for Green Cape

IDN60701

Issued at 12:21 am EST Sunday 26 April 2015 (issued every 10 minutes, with the page automatically refreshed every 10 minutes)

About coastal observations | Map of coastal stations | Coastal observations for NSW | Marine services | Other Formats
Station Details ID: 069137 Name: GREEN CAPE AWS Lat: -37.26 Lon: 150.05 Height: 19.4 m
Data from the previous 72 hours. | See also: Recent months at Green Cape
Date/Time
EST
Temp

°C
Wind Pressure Rain
since 9am
mm
Weather Cloud Vis
km
Sea
Height
m
Swell
Dir
 
Speed
knots
Gust
knots
hPa Trend Height
m
Period
s
Dir
26/12:00am 14.6 WSW 15 18 1007.5 - 9.2 - - - - - - -
 
Date/Time
EST
Temp

°C
Wind Pressure Rain
since 9am
mm
Weather Cloud Vis
km
Sea
Height
m
Swell
Dir
 
Speed
knots
Gust
knots
hPa Trend Height
m
Period
s
Dir
25/11:30pm 14.2 W 14 18 1007.8 - 9.2 - - - - - - -
25/11:00pm 14.2 W 14 16 1008.4 - 9.2 - - - - - - -
25/10:30pm 14.5 WSW 15 18 1008.4 - 9.2 - - - - - - -
25/10:00pm 14.4 W 13 18 1008.8 - 9.0 - - - - - - -
25/09:30pm 14.3 W 14 17 1008.9 - 9.0 - - - - - - -
25/09:00pm 13.9 W 12 16 1008.6 - 9.0 Recent precip. - - - - - -
25/08:30pm 13.8 W 12 15 1008.5 - 9.0 - - - - - - -
25/08:00pm 13.9 WSW 12 14 1008.7 - 8.6 - - - - - - -
25/07:30pm 14.2 S 11 13 1008.4 - 7.2 - - - - - - -
25/07:00pm 13.8 S 12 15 1008.6 - 5.4 - - - - - - -
25/06:30pm 13.7 W 8 11 1008.5 - 2.4 - - - - - - -
25/06:00pm 13.4 WNW 14 20 1007.6 - 1.2 Rain - - - - - -
25/05:35pm 13.9 W 17 27 1007.4 - 0.6 - - - - - - -
25/05:30pm 14.1 W 20 27 1007.5 - 0.6 - - - - - - -
25/05:20pm 14.3 WNW 20 27 1007.4 - 0.2 - - - - - - -
25/05:00pm 16.9 SSW 18 20 1006.9 - 0.0 - - - - - - -
25/04:30pm 17.2 S 15 17 1006.3 - 0.0 - - - - - - -
25/04:00pm 17.4 S 17 21 1006.2 - 0.0 - - - - - - -
25/03:30pm 17.7 S 15 18 1006.5 - 0.0 - - - - - - -
25/03:00pm 18.2 SSE 15 16 1006.4 - 0.0 - - - - - - -
25/02:30pm 18.8 S 13 15 1006.5 - 0.0 - - - - - - -
25/02:00pm 19.8 SSE 10 11 1006.2 - 0.0 - - - - - - -
25/01:30pm 20.9 SSE 8 9 1006.3 - 0.0 - - - - - - -
25/01:00pm 20.2 SSE 4 5 1006.7 - 0.0 - - - - - - -
25/12:30pm 19.3 S 4 5 1007.1 - 0.0 - - - - - - -
25/12:00pm 19.3 SSW 2 4 1007.5 - 0.0 - - - - - - -
25/11:30am 19.7 W 2 3 1007.8 - 0.0 - - - - - - -
25/11:00am 19.1 W 4 6 1007.8 - 0.0 - - - - - - -
25/10:30am 18.1 WNW 7 9 1007.7 - 0.0 - - - - - - -
25/10:00am 17.2 W 8 10 1007.6 - 0.0 - - - - - - -
25/09:30am 16.8 W 8 10 1007.7 - 0.0 - - - - - - -
25/09:00am 16.4 W 6 8 1007.5 - 2.2 - - - - - - -
25/08:30am 16.2 WNW 5 6 1007.3 - 2.2 - - - - - - -
25/08:00am 15.5 W 6 8 1007.2 - 2.2 - - - - - - -
25/07:30am 14.9 WSW 4 5 1006.9 - 2.2 - - - - - - -
25/07:00am 14.5 W 4 6 1006.7 - 2.2 - - - - - - -
25/06:30am 14.6 W 7 8 1006.5 - 2.2 - - - - - - -
25/06:00am 14.8 W 9 11 1006.3 - 2.2 - - - - - - -
25/05:30am 15.1 W 8 9 1005.8 - 2.2 - - - - - - -
25/05:00am 15.0 W 9 11 1005.8 - 2.2 - - - - - - -
25/04:30am 15.1 W 10 11 1005.7 - 2.2 - - - - - - -
25/04:00am 15.1 W 11 13 1005.5 - 2.2 - - - - - - -
25/03:30am 15.1 W 8 11 1005.4 - 2.2 - - - - - - -
25/03:00am 15.0 W 10 12 1005.2 - 2.2 - - - - - - -
25/02:30am 15.2 W 9 11 1005.2 - 2.2 - - - - - - -
25/02:00am 15.4 W 8 12 1005.2 - 2.2 - - - - - - -
25/01:30am 15.4 W 8 9 1005.1 - 2.2 - - - - - - -
25/01:00am 15.2 WNW 8 9 1005.0 - 2.2 - - - - - - -
25/12:30am 15.4 WNW 8 9 1005.1 - 2.2 - - - - - - -
25/12:00am 15.5 CALM 0 2 1005.1 - 2.2 - - - - - - -
 
Date/Time
EST
Temp

°C
Wind Pressure Rain
since 9am
mm
Weather Cloud Vis
km
Sea
Height
m
Swell
Dir
 
Speed
knots
Gust
knots
hPa Trend Height
m
Period
s
Dir
24/11:30pm 15.7 WNW 3 4 1004.9 - 2.2 - - - - - - -
24/11:00pm 16.3 NNW 6 9 1004.8 - 2.2 - - - - - - -
24/10:30pm 16.6 NNW 9 11 1004.6 - 2.2 - - - - - - -
24/10:00pm 16.5 NNW 7 9 1004.7 - 2.2 - - - - - - -
24/09:30pm 16.4 NNW 8 9 1004.8 - 2.2 - - - - - - -
24/09:00pm 16.5 NNW 7 8 1004.7 - 2.0 - - - - - - -
24/08:30pm 16.6 N 3 4 1004.6 - 2.0 - - - - - - -
24/08:00pm 16.6 N 4 5 1004.3 - 2.0 - - - - - - -
24/07:30pm 16.7 N 4 5 1004.1 - 2.0 - - - - - - -
24/07:00pm 16.9 NNE 3 4 1003.9 - 2.0 - - - - - - -
24/06:30pm 17.0 NNE 4 5 1004.0 - 2.0 - - - - - - -
24/06:00pm 17.0 N 6 8 1004.0 - 2.0 - - - - - - -
24/05:30pm 17.0 NNE 3 4 1003.6 - 2.0 - - - - - - -
24/05:00pm 17.1 CALM 0 1 1003.4 - 2.0 - - - - - - -
24/04:30pm 16.8 S 1 2 1003.3 - 1.6 - - - - - - -
24/04:00pm 17.0 SSW 6 7 1003.1 - 1.0 - - - - - - -
24/03:30pm 17.9 S 7 8 1002.6 - 0.2 - - - - - - -
24/03:00pm 18.2 S 9 10 1002.5 - 0.2 - - - - - - -
24/02:30pm 18.1 S 10 12 1002.8 - 0.2 - - - - - - -
24/02:00pm 17.9 W 2 2 1002.8 - 0.2 - - - - - - -
24/01:30pm 17.8 N 5 6 1003.0 - 0.2 - - - - - - -
24/01:00pm 17.7 N 6 8 1003.1 - 0.2 - - - - - - -
24/12:30pm 18.1 N 9 11 1003.3 - 0.0 - - - - - - -
24/12:00pm 18.3 N 11 13 1003.5 - 0.0 - - - - - - -
24/11:30am 18.3 N 14 16 1003.7 - 0.0 - - - - - - -
24/11:00am 18.5 N 13 15 1003.9 - 0.0 - - - - - - -
24/10:30am 17.7 N 15 17 1003.9 - 0.0 - - - - - - -
24/10:00am 17.8 N 12 13 1004.4 - 0.0 - - - - - - -
24/09:30am 17.6 N 10 13 1004.7 - 0.0 - - - - - - -
24/09:00am 16.7 N 9 10 1005.0 - 1.8 - - - - - - -
24/08:30am 16.4 N 5 6 1005.2 - 1.8 - - - - - - -
24/08:00am 16.6 N 7 9 1005.3 - 1.8 - - - - - - -
24/07:30am 15.9 NNW 3 5 1005.5 - 1.8 - - - - - - -
24/07:00am 14.5 WNW 3 4 1005.4 - 1.6 - - - - - - -
24/06:30am 14.6 WNW 3 4 1005.4 - 1.6 - - - - - - -
24/06:00am 14.5 WNW 2 4 1005.5 - 1.6 - - - - - - -
24/05:30am 14.5 W 3 5 1005.7 - 1.6 - - - - - - -
24/05:00am 14.6 W 8 9 1006.1 - 1.6 - - - - - - -
24/04:30am 14.8 W 5 7 1006.1 - 1.6 - - - - - - -
24/04:00am 14.6 W 10 12 1006.1 - 1.6 - - - - - - -
24/03:30am 14.8 W 6 7 1006.4 - 1.6 - - - - - - -
24/03:00am 14.9 W 8 9 1006.9 - 1.6 Rain - - - - - -
24/02:30am 14.9 W 10 11 1007.1 - 1.4 - - - - - - -
24/02:00am 15.0 W 9 11 1007.4 - 1.4 - - - - - - -
24/01:30am 15.0 W 12 13 1007.9 - 1.4 - - - - - - -
24/01:00am 15.3 W 10 12 1008.0 - 1.4 - - - - - - -
24/12:30am 15.5 W 8 10 1008.3 - 1.4 - - - - - - -
24/12:00am 15.4 W 10 11 1008.6 - 1.4 - - - - - - -
 
Date/Time
EST
Temp

°C
Wind Pressure Rain
since 9am
mm
Weather Cloud Vis
km
Sea
Height
m
Swell
Dir
 
Speed
knots
Gust
knots
hPa Trend Height
m
Period
s
Dir
23/11:30pm 15.6 W 10 11 1008.8 - 1.4 - - - - - - -
23/11:00pm 15.9 W 9 10 1009.5 - 1.4 - - - - - - -
23/10:30pm 16.0 WNW 8 9 1009.9 - 1.4 - - - - - - -
23/10:00pm 16.2 W 6 7 1010.3 - 1.4 - - - - - - -
23/09:30pm 16.3 WNW 7 8 1010.7 - 1.4 - - - - - - -
23/09:00pm 16.6 W 6 6 1010.9 - 1.4 - - - - - - -
23/08:30pm 16.7 W 4 5 1011.1 - 1.4 - - - - - - -
23/08:00pm 17.0 WNW 4 5 1011.1 - 1.4 - - - - - - -
23/07:30pm 17.0 W 4 5 1011.0 - 1.4 - - - - - - -
23/07:00pm 17.5 ESE 2 2 1011.2 - 1.4 - - - - - - -
23/06:30pm 17.9 E 4 4 1011.2 - 1.4 - - - - - - -
23/06:00pm 18.0 E 4 5 1011.0 - 1.4 - - - - - - -
23/05:30pm 18.1 ESE 4 5 1010.8 - 1.4 - - - - - - -
23/05:00pm 18.6 ESE 7 8 1010.7 - 1.4 - - - - - - -
23/04:30pm 19.1 ESE 6 7 1010.8 - 1.4 - - - - - - -
23/04:00pm 19.6 SE 7 8 1011.0 - 1.4 - - - - - - -
23/03:30pm 20.2 SE 8 9 1011.1 - 1.4 - - - - - - -
23/03:00pm 20.9 SE 8 9 1011.2 - 1.4 - - - - - - -
23/02:30pm 21.4 SE 6 8 1011.3 - 1.4 - - - - - - -
23/02:00pm 20.0 S 6 7 1011.3 - 1.4 - - - - - - -
23/01:30pm 19.4 S 9 10 1011.3 - 1.4 - - - - - - -
23/01:00pm 20.0 S 8 9 1011.6 - 1.4 - - - - - - -
23/12:30pm 20.4 S 8 10 1012.1 - 1.4 - - - - - - -
23/12:00pm 20.6 SSE 9 11 1012.7 - 1.4 - - - - - - -
23/11:30am 20.4 SSE 8 9 1013.3 - 1.4 - - - - - - -
23/11:00am 19.5 SSE 10 11 1013.5 - 1.4 - - - - - - -
23/10:30am 19.9 SSE 9 15 1013.8 - 1.4 - - - - - - -
23/10:00am 18.6 S 16 18 1013.7 - 1.4 - - - - - - -
23/09:30am 18.2 SSE 20 23 1013.7 - 1.2 - - - - - - -
23/09:00am 18.0 S 19 22 1013.8 - 77.2 Rain - - - - - -
23/08:30am 18.1 SSE 19 22 1013.9 - 75.8 - - - - - - -
23/08:00am 18.2 SSE 18 28 1013.9 - 75.6 - - - - - - -
23/07:58am 18.2 SSE 15 27 1014.0 - 75.6 - - - - - - -
23/07:30am 18.3 SE 16 23 1013.9 - 75.6 - - - - - - -
23/07:00am 18.1 SE 15 22 1013.5 - 73.6 - - - - - - -
23/06:45am 17.9 SE 14 23 1013.4 - 72.0 - - - - - - -
23/06:30am 18.0 S 15 24 1013.6 - 70.8 - - - - - - -
23/06:26am 18.0 S 20 27 1013.5 - 70.6 - - - - - - -
23/06:08am 17.9 SSE 28 41 1012.5 - 69.4 - - - - - - -
23/06:00am 18.1 SSE 27 32 1012.9 - 66.4 Rain - - - - - -
23/05:52am 18.2 SSE 22 32 1013.0 - 64.4 - - - - - - -
23/05:30am 18.0 SSE 25 31 1013.1 - 61.4 - - - - - - -
23/05:00am 18.2 S 23 27 1013.1 - 59.2 - - - - - - -
23/04:30am 18.3 SSE 23 27 1013.3 - 58.6 - - - - - - -
23/04:00am 18.2 SSE 20 25 1013.4 - 55.8 - - - - - - -
23/03:30am 17.5 S 12 15 1013.5 - 44.0 - - - - - - -
23/03:00am 17.6 S 17 19 1013.6 - 43.4 Rain - - - - - -
23/02:30am 18.1 SSE 17 19 1014.1 - 42.2 - - - - - - -
23/02:00am 18.3 SE 16 29 1014.1 - 40.8 - - - - - - -
23/01:56am 18.4 SE 11 29 1014.0 - 40.4 - - - - - - -
23/01:30am 18.4 SE 9 12 1014.3 - 39.2 - - - - - - -
23/01:00am 18.4 SE 13 15 1014.4 - 38.0 - - - - - - -
23/12:30am 18.3 SE 13 14 1014.6 - 37.6 - - - - - - -

Other Formats:

Comma delimited format used in spreadsheet applications
http://www.bom.gov.au/fwo/IDN60701/IDN60701.94934.axf

JavaScript Object Notation format (JSON) in row-major order
http://www.bom.gov.au/fwo/IDN60701/IDN60701.94934.json